createdAt,value
2016-10-11T00:00:43.334Z,954.42
2016-10-11T00:01:43.351Z,954.39
2016-10-11T00:02:43.370Z,954.4
2016-10-11T00:03:43.389Z,954.35
2016-10-11T00:04:43.407Z,954.34
2016-10-11T00:05:43.425Z,954.33
2016-10-11T00:06:43.444Z,954.34
2016-10-11T00:07:43.462Z,954.33
2016-10-11T00:08:43.481Z,954.35
2016-10-11T00:09:43.499Z,954.32
2016-10-11T00:10:43.517Z,954.3
2016-10-11T00:11:43.535Z,954.35
2016-10-11T00:12:43.554Z,954.31
2016-10-11T00:13:43.572Z,954.29
2016-10-11T00:14:43.591Z,954.28
2016-10-11T00:15:43.610Z,954.3
2016-10-11T00:16:43.627Z,954.28
2016-10-11T00:17:43.645Z,954.31
2016-10-11T00:18:43.665Z,954.29
2016-10-11T00:19:43.684Z,954.29
2016-10-11T00:20:43.702Z,954.26
2016-10-11T00:21:43.721Z,954.28
2016-10-11T00:22:43.739Z,954.27
2016-10-11T00:23:43.758Z,954.2
2016-10-11T00:24:43.775Z,954.19
2016-10-11T00:25:43.794Z,954.23
2016-10-11T00:26:43.813Z,954.23
2016-10-11T00:27:43.829Z,954.17
2016-10-11T00:28:43.849Z,954.21
2016-10-11T00:29:43.868Z,954.26
2016-10-11T00:30:43.888Z,954.2
2016-10-11T00:31:43.904Z,954.2
2016-10-11T00:32:43.923Z,954.14
2016-10-11T00:33:43.940Z,954.18
2016-10-11T00:34:43.959Z,954.13
2016-10-11T00:35:43.978Z,954.17
2016-10-11T00:36:43.996Z,954.16
2016-10-11T00:37:44.015Z,954.2
2016-10-11T00:38:44.032Z,954.14
2016-10-11T00:39:44.051Z,954.18
2016-10-11T00:40:44.070Z,954.19
2016-10-11T00:41:44.087Z,954.18
2016-10-11T00:42:44.106Z,954.17
2016-10-11T00:43:44.125Z,954.15
2016-10-11T00:44:44.144Z,954.18
2016-10-11T00:45:44.163Z,954.14
2016-10-11T00:46:44.180Z,954.12
2016-10-11T00:47:44.198Z,954.16
2016-10-11T00:48:44.216Z,954.1
2016-10-11T00:49:44.236Z,954.12
2016-10-11T00:50:44.254Z,954.09
2016-10-11T00:51:44.271Z,954.05
2016-10-11T00:52:44.291Z,954.09
2016-10-11T00:53:44.309Z,954.09
2016-10-11T00:54:44.327Z,954.1
2016-10-11T00:55:44.346Z,954.08
2016-10-11T00:56:44.363Z,954.04
2016-10-11T00:57:44.381Z,954.05
2016-10-11T00:58:44.400Z,954.01
2016-10-11T00:59:44.419Z,954
2016-10-11T01:00:44.444Z,953.99
2016-10-11T01:01:44.455Z,953.98
2016-10-11T01:02:44.473Z,953.98
2016-10-11T01:03:44.491Z,953.97
2016-10-11T01:04:44.510Z,953.98
2016-10-11T01:05:44.528Z,953.97
2016-10-11T01:06:44.547Z,953.96
2016-10-11T01:07:44.566Z,953.93
2016-10-11T01:08:44.582Z,953.99
2016-10-11T01:09:44.601Z,953.89
2016-10-11T01:10:44.619Z,953.92
2016-10-11T01:11:44.638Z,953.89
2016-10-11T01:12:44.656Z,953.88
2016-10-11T01:13:44.674Z,953.87
2016-10-11T01:14:44.692Z,953.88
2016-10-11T01:15:44.711Z,953.92
2016-10-11T01:16:44.729Z,953.86
2016-10-11T01:17:44.747Z,953.91
2016-10-11T01:18:44.764Z,953.85
2016-10-11T01:19:44.784Z,953.9
2016-10-11T01:20:44.802Z,953.88
2016-10-11T01:21:44.821Z,953.88
2016-10-11T01:22:44.839Z,953.86
2016-10-11T01:23:44.857Z,953.84
2016-10-11T01:24:44.875Z,953.8
2016-10-11T01:25:44.893Z,953.82
2016-10-11T01:26:44.913Z,953.82
2016-10-11T01:27:44.930Z,953.83
2016-10-11T01:28:44.949Z,953.78
2016-10-11T01:29:44.966Z,953.76
2016-10-11T01:30:44.990Z,953.77
2016-10-11T01:31:45.005Z,953.76
2016-10-11T01:32:45.022Z,953.77
2016-10-11T01:33:45.039Z,953.7
2016-10-11T01:34:45.059Z,953.75
2016-10-11T01:35:45.076Z,953.68
2016-10-11T01:36:45.094Z,953.69
2016-10-11T01:37:45.114Z,953.68
2016-10-11T01:38:45.131Z,953.63
2016-10-11T01:39:45.149Z,953.66
2016-10-11T01:40:45.167Z,953.63
2016-10-11T01:41:45.187Z,953.65
2016-10-11T01:42:45.204Z,953.64
2016-10-11T01:43:45.222Z,953.61
2016-10-11T01:44:45.240Z,953.57
2016-10-11T01:45:45.270Z,953.57
2016-10-11T01:46:45.276Z,953.59
2016-10-11T01:47:45.294Z,953.58
2016-10-11T01:48:45.313Z,953.6
2016-10-11T01:49:45.330Z,953.61
2016-10-11T01:50:45.350Z,953.56
2016-10-11T01:51:45.366Z,953.57
2016-10-11T01:52:45.394Z,953.51
2016-10-11T01:53:45.404Z,953.53
2016-10-11T01:54:45.422Z,953.52
2016-10-11T01:55:45.442Z,953.52
2016-10-11T01:56:45.460Z,953.53
2016-10-11T01:57:45.479Z,953.52
2016-10-11T01:58:45.497Z,953.51
2016-10-11T01:59:45.515Z,953.48
2016-10-11T02:00:45.553Z,953.53
2016-10-11T02:01:45.551Z,953.5
2016-10-11T02:02:45.569Z,953.52
2016-10-11T02:03:45.588Z,953.51
2016-10-11T02:04:45.606Z,953.46
2016-10-11T02:05:45.624Z,953.52
2016-10-11T02:06:45.642Z,953.52
2016-10-11T02:07:45.674Z,953.49
2016-10-11T02:08:45.679Z,953.52
2016-10-11T02:09:45.697Z,953.5
2016-10-11T02:10:45.714Z,953.47
2016-10-11T02:11:45.739Z,953.45
2016-10-11T02:12:45.753Z,953.46
2016-10-11T02:13:45.770Z,953.45
2016-10-11T02:14:45.789Z,953.46
2016-10-11T02:15:45.807Z,953.46
2016-10-11T02:16:45.825Z,953.46
2016-10-11T02:17:45.843Z,953.44
2016-10-11T02:18:45.862Z,953.47
2016-10-11T02:19:45.880Z,953.47
2016-10-11T02:20:45.898Z,953.46
2016-10-11T02:21:45.916Z,953.48
2016-10-11T02:22:45.956Z,953.47
2016-10-11T02:23:45.955Z,953.48
2016-10-11T02:24:45.971Z,953.43
2016-10-11T02:25:45.990Z,953.43
2016-10-11T02:26:46.007Z,953.44
2016-10-11T02:27:46.026Z,953.44
2016-10-11T02:28:46.044Z,953.4
2016-10-11T02:29:46.062Z,953.45
2016-10-11T02:30:46.082Z,953.45
2016-10-11T02:31:46.099Z,953.46
2016-10-11T02:32:46.117Z,953.43
2016-10-11T02:33:46.136Z,953.43
2016-10-11T02:34:46.153Z,953.4
2016-10-11T02:35:46.171Z,953.37
2016-10-11T02:36:46.191Z,953.39
2016-10-11T02:37:46.209Z,953.39
2016-10-11T02:38:46.226Z,953.35
2016-10-11T02:39:46.245Z,953.4
2016-10-11T02:40:46.263Z,953.38
2016-10-11T02:41:46.282Z,953.33
2016-10-11T02:42:46.299Z,953.36
2016-10-11T02:43:46.318Z,953.35
2016-10-11T02:44:46.336Z,953.35
2016-10-11T02:45:46.355Z,953.33
2016-10-11T02:46:46.372Z,953.35
2016-10-11T02:47:46.390Z,953.31
2016-10-11T02:48:46.409Z,953.29
2016-10-11T02:49:46.425Z,953.32
2016-10-11T02:50:46.445Z,953.28
2016-10-11T02:51:46.464Z,953.31
2016-10-11T02:52:46.481Z,953.29
2016-10-11T02:53:46.500Z,953.32
2016-10-11T02:54:46.518Z,953.3
2016-10-11T02:55:46.537Z,953.3
2016-10-11T02:56:46.555Z,953.27
2016-10-11T02:57:46.573Z,953.27
2016-10-11T02:58:46.591Z,953.28
2016-10-11T02:59:46.610Z,953.25
2016-10-11T03:00:46.627Z,953.26
2016-10-11T03:01:46.646Z,953.25
2016-10-11T03:02:46.664Z,953.23
2016-10-11T03:03:46.682Z,953.24
2016-10-11T03:04:46.700Z,953.2
2016-10-11T03:05:46.718Z,953.2
2016-10-11T03:06:46.737Z,953.23
2016-10-11T03:07:46.755Z,953.26
2016-10-11T03:08:46.772Z,953.22
2016-10-11T03:09:46.791Z,953.24
2016-10-11T03:10:46.809Z,953.25
2016-10-11T03:11:46.827Z,953.24
2016-10-11T03:12:46.845Z,953.21
2016-10-11T03:13:46.863Z,953.23
2016-10-11T03:14:46.882Z,953.24
2016-10-11T03:15:46.899Z,953.22
2016-10-11T03:16:46.916Z,953.23
2016-10-11T03:17:46.936Z,953.22
2016-10-11T03:18:46.954Z,953.25
2016-10-11T03:19:46.971Z,953.28
2016-10-11T03:20:46.989Z,953.23
2016-10-11T03:21:47.008Z,953.26
2016-10-11T03:22:47.028Z,953.26
2016-10-11T03:23:47.043Z,953.19
2016-10-11T03:24:47.060Z,953.23
2016-10-11T03:25:47.080Z,953.2
2016-10-11T03:26:47.096Z,953.21
2016-10-11T03:27:47.116Z,953.17
2016-10-11T03:28:47.133Z,953.21
2016-10-11T03:29:47.156Z,953.24
2016-10-11T03:30:47.171Z,953.18
2016-10-11T03:31:47.188Z,953.19
2016-10-11T03:32:47.205Z,953.15
2016-10-11T03:33:47.224Z,953.18
2016-10-11T03:34:47.242Z,953.18
2016-10-11T03:35:47.260Z,953.21
2016-10-11T03:36:47.278Z,953.22
2016-10-11T03:37:47.298Z,953.16
2016-10-11T03:38:47.315Z,953.16
2016-10-11T03:39:47.332Z,953.18
2016-10-11T03:40:47.349Z,953.1
2016-10-11T03:41:47.367Z,953.15
2016-10-11T03:42:47.386Z,953.12
2016-10-11T03:43:47.404Z,953.13
2016-10-11T03:44:47.422Z,953.14
2016-10-11T03:45:47.438Z,953.13
2016-10-11T03:46:47.459Z,953.12
2016-10-11T03:47:47.476Z,953.13
2016-10-11T03:48:47.493Z,953.12
2016-10-11T03:49:47.511Z,953.14
2016-10-11T03:50:47.529Z,953.11
2016-10-11T03:51:47.547Z,953.14
2016-10-11T03:52:47.577Z,953.16
2016-10-11T03:53:47.583Z,953.15
2016-10-11T03:54:47.603Z,953.13
2016-10-11T03:55:47.618Z,953.14
2016-10-11T03:56:47.637Z,953.14
2016-10-11T03:57:47.656Z,953.13
2016-10-11T03:58:47.672Z,953.12
2016-10-11T03:59:47.702Z,953.11
2016-10-11T04:00:47.708Z,953.13
2016-10-11T04:01:47.726Z,953.11
2016-10-11T04:02:47.744Z,953.11
2016-10-11T04:03:47.762Z,953.08
2016-10-11T04:04:47.781Z,953.09
2016-10-11T04:05:47.799Z,953.11
2016-10-11T04:06:47.818Z,953.1
2016-10-11T04:07:47.834Z,953.1
2016-10-11T04:08:47.852Z,953.09
2016-10-11T04:09:47.871Z,953.06
2016-10-11T04:10:47.887Z,953.08
2016-10-11T04:11:47.907Z,953.06
2016-10-11T04:12:47.925Z,953.07
2016-10-11T04:13:47.941Z,953.06
2016-10-11T04:14:47.980Z,953.06
2016-10-11T04:15:47.977Z,953.02
2016-10-11T04:16:47.997Z,953.02
2016-10-11T04:17:48.013Z,953.06
2016-10-11T04:18:48.031Z,953.06
2016-10-11T04:19:48.049Z,953
2016-10-11T04:20:48.067Z,953.02
2016-10-11T04:21:48.085Z,953.04
2016-10-11T04:22:48.103Z,953
2016-10-11T04:23:48.120Z,953
2016-10-11T04:24:48.138Z,953.05
2016-10-11T04:25:48.156Z,953.03
2016-10-11T04:26:48.174Z,952.98
2016-10-11T04:27:48.191Z,953.04
2016-10-11T04:28:48.209Z,953.04
2016-10-11T04:29:48.228Z,953.08
2016-10-11T04:30:48.245Z,953.03
2016-10-11T04:31:48.263Z,953.02
2016-10-11T04:32:48.281Z,953.02
2016-10-11T04:33:48.300Z,953.04
2016-10-11T04:34:48.317Z,953.02
2016-10-11T04:35:48.334Z,952.99
2016-10-11T04:36:48.352Z,952.99
2016-10-11T04:37:48.372Z,953.06
2016-10-11T04:38:48.388Z,953.02
2016-10-11T04:39:48.406Z,952.99
2016-10-11T04:40:48.424Z,953.01
2016-10-11T04:41:48.442Z,953.03
2016-10-11T04:42:48.459Z,952.99
2016-10-11T04:43:48.476Z,953.03
2016-10-11T04:44:48.497Z,953.02
2016-10-11T04:45:48.513Z,953.01
2016-10-11T04:46:48.531Z,953.04
2016-10-11T04:47:48.550Z,953.04
2016-10-11T04:48:48.568Z,953.03
2016-10-11T04:49:48.586Z,953.03
2016-10-11T04:50:48.602Z,953.04
2016-10-11T04:51:48.621Z,953.07
2016-10-11T04:52:48.644Z,953.03
2016-10-11T04:53:48.656Z,953.03
2016-10-11T04:54:48.675Z,953.04
2016-10-11T04:55:48.694Z,953.02
2016-10-11T04:56:48.711Z,953.04
2016-10-11T04:57:48.728Z,953.02
2016-10-11T04:58:48.749Z,953.03
2016-10-11T04:59:48.768Z,953.02
2016-10-11T05:00:48.783Z,953.03
2016-10-11T05:01:48.800Z,953.04
2016-10-11T05:02:48.818Z,953.03
2016-10-11T05:03:48.837Z,953.03
2016-10-11T05:04:48.855Z,953.04
2016-10-11T05:05:48.875Z,953.03
2016-10-11T05:06:48.892Z,953
2016-10-11T05:07:48.910Z,953.03
2016-10-11T05:08:48.927Z,952.99
2016-10-11T05:09:48.947Z,953.01
2016-10-11T05:10:48.964Z,953
2016-10-11T05:11:48.984Z,953.01
2016-10-11T05:12:48.999Z,953.03
2016-10-11T05:13:49.018Z,952.95
2016-10-11T05:14:49.042Z,952.94
2016-10-11T05:15:49.053Z,953
2016-10-11T05:16:49.071Z,952.98
2016-10-11T05:17:49.090Z,952.99
2016-10-11T05:18:49.108Z,952.95
2016-10-11T05:19:49.126Z,952.97
2016-10-11T05:20:49.144Z,952.97
2016-10-11T05:21:49.166Z,953
2016-10-11T05:22:49.182Z,952.96
2016-10-11T05:23:49.198Z,952.95
2016-10-11T05:24:49.224Z,952.93
2016-10-11T05:25:49.235Z,952.97
2016-10-11T05:26:49.251Z,952.94
2016-10-11T05:27:49.270Z,952.96
2016-10-11T05:28:49.288Z,952.95
2016-10-11T05:29:49.323Z,952.97
2016-10-11T05:30:49.323Z,952.96
2016-10-11T05:31:49.341Z,952.94
2016-10-11T05:32:49.360Z,952.97
2016-10-11T05:33:49.377Z,952.92
2016-10-11T05:34:49.395Z,952.94
2016-10-11T05:35:49.413Z,952.95
2016-10-11T05:36:49.452Z,952.92
2016-10-11T05:37:49.449Z,952.93
2016-10-11T05:38:49.466Z,952.92
2016-10-11T05:39:49.486Z,952.93
2016-10-11T05:40:49.504Z,952.89
2016-10-11T05:41:49.521Z,952.89
2016-10-11T05:42:49.539Z,952.88
2016-10-11T05:43:49.557Z,952.85
2016-10-11T05:44:49.577Z,952.87
2016-10-11T05:45:49.593Z,952.88
2016-10-11T05:46:49.611Z,952.85
2016-10-11T05:47:49.654Z,952.88
2016-10-11T05:48:49.646Z,952.84
2016-10-11T05:49:49.665Z,952.87
2016-10-11T05:50:49.684Z,952.88
2016-10-11T05:51:49.702Z,952.89
2016-10-11T05:52:49.719Z,952.91
2016-10-11T05:53:49.736Z,952.9
2016-10-11T05:54:49.754Z,952.91
2016-10-11T05:55:49.774Z,952.91
2016-10-11T05:56:49.790Z,952.87
2016-10-11T05:57:49.811Z,952.88
2016-10-11T05:58:49.827Z,952.86
2016-10-11T05:59:49.844Z,952.84
2016-10-11T06:00:49.863Z,952.87
2016-10-11T06:01:49.880Z,952.88
2016-10-11T06:02:49.899Z,952.89
2016-10-11T06:03:49.917Z,952.89
2016-10-11T06:04:49.934Z,952.91
2016-10-11T06:05:49.953Z,952.86
2016-10-11T06:06:49.971Z,952.87
2016-10-11T06:07:49.989Z,952.85
2016-10-11T06:08:50.008Z,952.9
2016-10-11T06:09:50.027Z,952.9
2016-10-11T06:10:50.044Z,952.92
2016-10-11T06:11:50.060Z,952.95
2016-10-11T06:12:50.079Z,952.95
2016-10-11T06:13:50.098Z,952.96
2016-10-11T06:14:50.116Z,952.97
2016-10-11T06:15:50.133Z,953
2016-10-11T06:16:50.151Z,953.02
2016-10-11T06:17:50.171Z,952.99
2016-10-11T06:18:50.187Z,953.02
2016-10-11T06:19:50.206Z,953
2016-10-11T06:20:50.224Z,953.04
2016-10-11T06:21:50.242Z,953.05
2016-10-11T06:22:50.260Z,953.04
2016-10-11T06:23:50.279Z,953.07
2016-10-11T06:24:50.297Z,953.07
2016-10-11T06:25:50.317Z,953.08
2016-10-11T06:26:50.333Z,953.06
2016-10-11T06:27:50.352Z,953.08
2016-10-11T06:28:50.372Z,953.09
2016-10-11T06:29:50.387Z,953.08
2016-10-11T06:30:50.405Z,953.07
2016-10-11T06:31:50.425Z,953.09
2016-10-11T06:32:50.440Z,953.11
2016-10-11T06:33:50.460Z,953.09
2016-10-11T06:34:50.479Z,953.1
2016-10-11T06:35:50.496Z,953.13
2016-10-11T06:36:50.513Z,953.06
2016-10-11T06:37:50.532Z,953.12
2016-10-11T06:38:50.551Z,953.07
2016-10-11T06:39:50.571Z,953.13
2016-10-11T06:40:50.587Z,953.08
2016-10-11T06:41:50.608Z,953.09
2016-10-11T06:42:50.624Z,953.1
2016-10-11T06:43:50.780Z,953.1
2016-10-11T06:44:50.660Z,953.14
2016-10-11T06:45:50.679Z,953.12
2016-10-11T06:46:50.698Z,953.11
2016-10-11T06:47:50.714Z,953.16
2016-10-11T06:48:50.733Z,953.16
2016-10-11T06:49:50.753Z,953.12
2016-10-11T06:50:50.769Z,953.15
2016-10-11T06:51:50.787Z,953.16
2016-10-11T06:52:50.806Z,953.11
2016-10-11T06:53:50.824Z,953.15
2016-10-11T06:54:50.841Z,953.12
2016-10-11T06:55:50.860Z,953.15
2016-10-11T06:56:50.880Z,953.11
2016-10-11T06:57:50.897Z,953.14
2016-10-11T06:58:50.916Z,953.15
2016-10-11T06:59:50.935Z,953.14
2016-10-11T07:00:50.953Z,953.18
2016-10-11T07:01:50.968Z,953.17
2016-10-11T07:02:50.989Z,953.11
2016-10-11T07:03:51.006Z,953.16
2016-10-11T07:04:51.025Z,953.18
2016-10-11T07:05:51.043Z,953.13
2016-10-11T07:06:51.068Z,953.21
2016-10-11T07:07:51.081Z,953.16
2016-10-11T07:08:51.099Z,953.18
2016-10-11T07:09:51.116Z,953.16
2016-10-11T07:10:51.135Z,953.15
2016-10-11T07:11:51.153Z,953.15
2016-10-11T07:12:51.171Z,953.15
2016-10-11T07:13:51.191Z,953.13
2016-10-11T07:14:51.209Z,953.15
2016-10-11T07:15:51.228Z,953.11
2016-10-11T07:16:51.245Z,953.16
2016-10-11T07:17:51.266Z,953.15
2016-10-11T07:18:51.283Z,953.15
2016-10-11T07:19:51.304Z,953.16
2016-10-11T07:20:51.320Z,953.17
2016-10-11T07:21:51.347Z,953.18
2016-10-11T07:22:51.358Z,953.21
2016-10-11T07:23:51.375Z,953.2
2016-10-11T07:24:51.395Z,953.24
2016-10-11T07:25:51.413Z,953.22
2016-10-11T07:26:51.432Z,953.19
2016-10-11T07:27:51.449Z,953.21
2016-10-11T07:28:51.471Z,953.23
2016-10-11T07:29:51.488Z,953.22
2016-10-11T07:30:51.507Z,953.23
2016-10-11T07:31:51.525Z,953.24
2016-10-11T07:32:51.544Z,953.2
2016-10-11T07:33:51.563Z,953.25
2016-10-11T07:34:51.581Z,953.27
2016-10-11T07:35:51.600Z,953.23
2016-10-11T07:36:51.627Z,953.24
2016-10-11T07:37:51.638Z,953.25
2016-10-11T07:38:51.657Z,953.23
2016-10-11T07:39:51.676Z,953.22
2016-10-11T07:40:51.695Z,953.21
2016-10-11T07:41:51.713Z,953.26
2016-10-11T07:42:51.732Z,953.24
2016-10-11T07:43:51.751Z,953.24
2016-10-11T07:44:51.770Z,953.19
2016-10-11T07:45:51.788Z,953.18
2016-10-11T07:46:51.807Z,953.17
2016-10-11T07:47:51.827Z,953.2
2016-10-11T07:48:51.846Z,953.21
2016-10-11T07:49:51.863Z,953.24
2016-10-11T07:50:51.884Z,953.26
2016-10-11T07:51:51.908Z,953.21
2016-10-11T07:52:51.922Z,953.22
2016-10-11T07:53:51.940Z,953.2
2016-10-11T07:54:51.959Z,953.2
2016-10-11T07:55:51.979Z,953.22
2016-10-11T07:56:51.998Z,953.23
2016-10-11T07:57:52.017Z,953.22
2016-10-11T07:58:52.037Z,953.25
2016-10-11T07:59:52.056Z,953.18
2016-10-11T08:00:52.075Z,953.24
2016-10-11T08:01:52.094Z,953.24
2016-10-11T08:02:52.114Z,953.26
2016-10-11T08:03:52.133Z,953.22
2016-10-11T08:04:52.152Z,953.24
2016-10-11T08:05:52.172Z,953.26
2016-10-11T08:06:52.192Z,953.28
2016-10-11T08:07:52.211Z,953.26
2016-10-11T08:08:52.230Z,953.26
2016-10-11T08:09:52.247Z,953.26
2016-10-11T08:10:52.269Z,953.32
2016-10-11T08:11:52.287Z,953.28
2016-10-11T08:12:52.306Z,953.25
2016-10-11T08:13:52.327Z,953.26
2016-10-11T08:14:52.345Z,953.29
2016-10-11T08:15:52.365Z,953.28
2016-10-11T08:16:52.385Z,953.24
2016-10-11T08:17:52.405Z,953.27
2016-10-11T08:18:52.423Z,953.26
2016-10-11T08:19:52.444Z,953.26
2016-10-11T08:20:52.462Z,953.26
2016-10-11T08:21:52.482Z,953.26
2016-10-11T08:22:52.501Z,953.23
2016-10-11T08:23:52.521Z,953.22
2016-10-11T08:24:52.541Z,953.23
2016-10-11T08:25:52.559Z,953.23
2016-10-11T08:26:52.578Z,953.27
2016-10-11T08:27:52.598Z,953.2
2016-10-11T08:28:52.617Z,953.21
2016-10-11T08:29:52.635Z,953.23
2016-10-11T08:30:52.656Z,953.2
2016-10-11T08:31:52.676Z,953.22
2016-10-11T08:32:52.696Z,953.23
2016-10-11T08:33:52.715Z,953.17
2016-10-11T08:34:52.734Z,953.24
2016-10-11T08:35:52.754Z,953.19
2016-10-11T08:36:52.781Z,953.22
2016-10-11T08:37:52.794Z,953.23
2016-10-11T08:38:52.813Z,953.23
2016-10-11T08:39:52.830Z,953.22
2016-10-11T08:40:52.851Z,953.22
2016-10-11T08:41:52.871Z,953.2
2016-10-11T08:42:52.890Z,953.22
2016-10-11T08:43:52.911Z,953.2
2016-10-11T08:44:52.929Z,953.18
2016-10-11T08:45:52.950Z,953.19
2016-10-11T08:46:52.970Z,953.23
2016-10-11T08:47:52.988Z,953.2
2016-10-11T08:48:53.009Z,953.16
2016-10-11T08:49:53.029Z,953.15
2016-10-11T08:50:53.050Z,953.18
2016-10-11T08:51:53.092Z,953.19
2016-10-11T08:52:53.088Z,953.12
2016-10-11T08:53:53.110Z,953.11
2016-10-11T08:54:53.131Z,953.15
2016-10-11T08:55:53.150Z,953.18
2016-10-11T08:56:53.170Z,953.11
2016-10-11T08:57:53.191Z,953.08
2016-10-11T08:58:53.211Z,953.15
2016-10-11T08:59:53.247Z,953.16
2016-10-11T09:00:53.252Z,953.16
2016-10-11T09:01:53.273Z,953.08
2016-10-11T09:02:53.293Z,953.11
2016-10-11T09:03:53.314Z,953.09
2016-10-11T09:04:53.335Z,953.12
2016-10-11T09:05:53.355Z,953.11
2016-10-11T09:06:53.376Z,953.1
2016-10-11T09:07:53.397Z,953.12
2016-10-11T09:08:53.418Z,953.11
2016-10-11T09:09:53.439Z,953.11
2016-10-11T09:10:53.460Z,953.1
2016-10-11T09:11:53.481Z,953.09
2016-10-11T09:12:53.503Z,953.13
2016-10-11T09:13:53.524Z,953.08
2016-10-11T09:14:53.544Z,953.11
2016-10-11T09:15:53.566Z,953.11
2016-10-11T09:16:53.588Z,953.12
2016-10-11T09:17:53.607Z,953.09
2016-10-11T09:18:53.629Z,953.09
2016-10-11T09:19:53.650Z,953.12
2016-10-11T09:20:53.670Z,953.1
2016-10-11T09:21:53.692Z,953.09
2016-10-11T09:22:53.713Z,953.09
2016-10-11T09:23:53.735Z,953.08
2016-10-11T09:24:53.755Z,953.06
2016-10-11T09:25:53.776Z,953.06
2016-10-11T09:26:53.798Z,953.05
2016-10-11T09:27:53.818Z,953.05
2016-10-11T09:28:53.840Z,953.05
2016-10-11T09:29:53.867Z,953.06
2016-10-11T09:30:53.882Z,953.03
2016-10-11T09:31:53.902Z,953.03
2016-10-11T09:32:53.923Z,953.04
2016-10-11T09:33:53.944Z,953
2016-10-11T09:34:53.966Z,953.01
2016-10-11T09:35:53.986Z,952.98
2016-10-11T09:36:54.008Z,953
2016-10-11T09:37:54.030Z,953
2016-10-11T09:38:54.050Z,953.02
2016-10-11T09:39:54.070Z,952.99
2016-10-11T09:40:54.092Z,952.96
2016-10-11T09:41:54.111Z,952.93
2016-10-11T09:42:54.133Z,952.97
2016-10-11T09:43:54.154Z,952.88
2016-10-11T09:44:54.174Z,952.92
2016-10-11T09:45:54.196Z,952.92
2016-10-11T09:46:54.216Z,952.91
2016-10-11T09:47:54.236Z,952.92
2016-10-11T09:48:54.258Z,952.9
2016-10-11T09:49:54.281Z,952.93
2016-10-11T09:50:54.301Z,952.92
2016-10-11T09:51:54.322Z,952.95
2016-10-11T09:52:54.364Z,952.94
2016-10-11T09:53:54.363Z,952.94
2016-10-11T09:54:54.384Z,952.97
2016-10-11T09:55:54.406Z,952.95
2016-10-11T09:56:54.427Z,952.94
2016-10-11T09:57:54.447Z,952.95
2016-10-11T09:58:54.521Z,952.89
2016-10-11T09:59:54.489Z,952.89
2016-10-11T10:00:54.520Z,952.89
2016-10-11T10:01:54.530Z,952.87
2016-10-11T10:02:54.551Z,952.89
2016-10-11T10:03:54.572Z,952.89
2016-10-11T10:04:54.687Z,952.87
2016-10-11T10:05:54.613Z,952.86
2016-10-11T10:06:54.635Z,952.85
2016-10-11T10:07:54.660Z,952.85
2016-10-11T10:08:54.676Z,952.86
2016-10-11T10:09:54.697Z,952.84
2016-10-11T10:10:54.717Z,952.86
2016-10-11T10:11:54.737Z,952.86
2016-10-11T10:12:54.757Z,952.85
2016-10-11T10:13:54.777Z,952.82
2016-10-11T10:14:54.800Z,952.87
2016-10-11T10:15:54.819Z,952.84
2016-10-11T10:16:54.839Z,952.84
2016-10-11T10:17:54.860Z,952.85
2016-10-11T10:18:54.881Z,952.82
2016-10-11T10:19:54.901Z,952.82
2016-10-11T10:20:54.923Z,952.86
2016-10-11T10:21:54.943Z,952.83
2016-10-11T10:22:54.962Z,952.83
2016-10-11T10:23:54.982Z,952.81
2016-10-11T10:24:55.003Z,952.82
2016-10-11T10:25:55.024Z,952.81
2016-10-11T10:26:55.055Z,952.75
2016-10-11T10:27:55.098Z,952.76
2016-10-11T10:28:55.086Z,952.74
2016-10-11T10:29:55.106Z,952.77
2016-10-11T10:30:55.141Z,952.73
2016-10-11T10:31:55.147Z,952.72
2016-10-11T10:32:55.170Z,952.7
2016-10-11T10:33:55.189Z,952.71
2016-10-11T10:34:55.209Z,952.67
2016-10-11T10:35:55.230Z,952.68
2016-10-11T10:36:55.251Z,952.67
2016-10-11T10:37:55.269Z,952.68
2016-10-11T10:38:55.501Z,952.7
2016-10-11T10:39:55.309Z,952.71
2016-10-11T10:40:55.331Z,952.68
2016-10-11T10:41:55.350Z,952.71
2016-10-11T10:42:55.371Z,952.7
2016-10-11T10:43:55.392Z,952.68
2016-10-11T10:44:55.412Z,952.68
2016-10-11T10:45:55.440Z,952.69
2016-10-11T10:46:55.454Z,952.65
2016-10-11T10:47:55.475Z,952.64
2016-10-11T10:48:55.493Z,952.65
2016-10-11T10:49:55.526Z,952.64
2016-10-11T10:50:55.537Z,952.62
2016-10-11T10:51:55.556Z,952.56
2016-10-11T10:52:55.575Z,952.55
2016-10-11T10:53:55.598Z,952.52
2016-10-11T10:54:55.619Z,952.5
2016-10-11T10:55:55.638Z,952.52
2016-10-11T10:56:55.659Z,952.48
2016-10-11T10:57:55.681Z,952.49
2016-10-11T10:58:55.702Z,952.41
2016-10-11T10:59:55.722Z,952.45
2016-10-11T11:00:55.742Z,952.43
2016-10-11T11:01:55.765Z,952.41
2016-10-11T11:02:55.785Z,952.42
2016-10-11T11:03:55.806Z,952.39
2016-10-11T11:04:55.826Z,952.38
2016-10-11T11:05:55.848Z,952.33
2016-10-11T11:06:55.868Z,952.36
2016-10-11T11:07:55.889Z,952.33
2016-10-11T11:08:55.919Z,952.36
2016-10-11T11:09:55.931Z,952.32
2016-10-11T11:10:55.952Z,952.36
2016-10-11T11:11:55.972Z,952.34
2016-10-11T11:12:55.997Z,952.33
2016-10-11T11:13:56.017Z,952.36
2016-10-11T11:14:56.036Z,952.29
2016-10-11T11:15:56.057Z,952.3
2016-10-11T11:16:56.079Z,952.32
2016-10-11T11:17:56.099Z,952.29
2016-10-11T11:18:56.121Z,952.31
2016-10-11T11:19:56.144Z,952.28
2016-10-11T11:20:56.163Z,952.27
2016-10-11T11:21:56.185Z,952.32
2016-10-11T11:22:56.206Z,952.26
2016-10-11T11:23:56.227Z,952.26
2016-10-11T11:24:56.248Z,952.23
2016-10-11T11:25:56.269Z,952.24
2016-10-11T11:26:56.291Z,952.24
2016-10-11T11:27:56.313Z,952.2
2016-10-11T11:28:56.333Z,952.21
2016-10-11T11:29:56.355Z,952.2
2016-10-11T11:30:56.376Z,952.19
2016-10-11T11:31:56.416Z,952.21
2016-10-11T11:32:56.418Z,952.22
2016-10-11T11:33:56.439Z,952.23
2016-10-11T11:34:56.461Z,952.23
2016-10-11T11:35:56.481Z,952.2
2016-10-11T11:36:56.502Z,952.19
2016-10-11T11:37:56.524Z,952.16
2016-10-11T11:38:56.545Z,952.17
2016-10-11T11:39:56.571Z,952.2
2016-10-11T11:40:56.587Z,952.16
2016-10-11T11:41:56.607Z,952.19
2016-10-11T11:42:56.628Z,952.17
2016-10-11T11:43:56.650Z,952.16
2016-10-11T11:44:56.671Z,952.18
2016-10-11T11:45:56.691Z,952.15
2016-10-11T11:46:56.715Z,952.12
2016-10-11T11:47:56.733Z,952.11
2016-10-11T11:48:56.754Z,952.1
2016-10-11T11:49:56.776Z,952.12
2016-10-11T11:50:56.796Z,952.12
2016-10-11T11:51:56.816Z,952.15
2016-10-11T11:52:56.838Z,952.12
2016-10-11T11:53:56.858Z,952.11
2016-10-11T11:54:56.878Z,952.07
2016-10-11T11:55:56.900Z,952.05
2016-10-11T11:56:56.922Z,952.11
2016-10-11T11:57:56.941Z,952.09
2016-10-11T11:58:56.964Z,952.13
2016-10-11T11:59:56.983Z,952.1
2016-10-11T12:00:57.003Z,952.11
2016-10-11T12:01:57.025Z,952.14
2016-10-11T12:02:57.068Z,952.16
2016-10-11T12:03:57.067Z,952.14
2016-10-11T12:04:57.088Z,952.14
2016-10-11T12:05:57.107Z,952.09
2016-10-11T12:06:57.129Z,952.11
2016-10-11T12:07:57.151Z,952.12
2016-10-11T12:08:57.170Z,952.13
2016-10-11T12:09:57.193Z,952.12
2016-10-11T12:10:57.214Z,952.13
2016-10-11T12:11:57.233Z,952.12
2016-10-11T12:12:57.254Z,952.17
2016-10-11T12:13:57.275Z,952.17
2016-10-11T12:14:57.295Z,952.15
2016-10-11T12:15:57.317Z,952.16
2016-10-11T12:16:57.338Z,952.16
2016-10-11T12:17:57.366Z,952.2
2016-10-11T12:18:57.380Z,952.25
2016-10-11T12:19:57.401Z,952.22
2016-10-11T12:20:57.421Z,952.19
2016-10-11T12:21:57.443Z,952.21
2016-10-11T12:22:57.464Z,952.27
2016-10-11T12:23:57.484Z,952.25
2016-10-11T12:24:57.504Z,952.18
2016-10-11T12:25:57.526Z,952.23
2016-10-11T12:26:57.547Z,952.22
2016-10-11T12:27:57.568Z,952.2
2016-10-11T12:28:57.587Z,952.2
2016-10-11T12:29:57.608Z,952.22
2016-10-11T12:30:57.629Z,952.2
2016-10-11T12:31:57.650Z,952.16